createdAt,value
2022-11-10T00:00:01.350Z,1.50
2022-11-10T00:05:05.869Z,1.60
2022-11-10T00:10:09.430Z,1.48
2022-11-10T00:15:12.059Z,1.83
2022-11-10T00:20:16.113Z,1.80
2022-11-10T00:25:18.559Z,1.40
2022-11-10T00:30:20.811Z,1.48
2022-11-10T00:35:24.533Z,1.10
2022-11-10T00:40:26.794Z,1.13
2022-11-10T00:45:29.096Z,1.00
2022-11-10T00:50:32.834Z,0.90
2022-11-10T00:55:38.105Z,1.23
2022-11-10T01:00:40.600Z,1.48
2022-11-10T01:05:45.102Z,1.30
2022-11-10T01:10:47.451Z,1.58
2022-11-10T01:15:49.748Z,2.20
2022-11-10T01:20:53.507Z,2.53
2022-11-10T01:25:57.573Z,2.80
2022-11-10T01:31:00.253Z,2.95
2022-11-10T01:36:05.087Z,3.20
2022-11-10T01:41:14.373Z,2.42
2022-11-10T01:46:16.730Z,3.20
2022-11-10T01:51:24.502Z,2.80
2022-11-10T01:56:30.631Z,2.70
2022-11-10T02:01:32.936Z,2.40
2022-11-10T02:06:40.899Z,2.63
2022-11-10T02:11:44.231Z,3.00
2022-11-10T02:16:46.625Z,2.70
2022-11-10T02:21:50.622Z,2.40
2022-11-10T02:26:55.973Z,2.55
2022-11-10T02:31:58.195Z,2.67
2022-11-10T02:37:01.820Z,3.00
2022-11-10T02:42:05.068Z,2.75
2022-11-10T02:47:07.708Z,2.70
2022-11-10T02:52:11.425Z,3.20
2022-11-10T02:57:13.670Z,3.40
2022-11-10T03:02:15.881Z,3.38
2022-11-10T03:07:19.644Z,3.28
2022-11-10T03:12:21.939Z,3.53
2022-11-10T03:17:24.498Z,3.20
2022-11-10T03:22:28.245Z,3.50
2022-11-10T03:27:30.654Z,3.80
2022-11-10T03:32:32.968Z,3.33
2022-11-10T03:37:36.712Z,3.88
2022-11-10T03:42:42.407Z,3.75
2022-11-10T03:47:45.778Z,3.80
2022-11-10T03:52:50.697Z,4.20
2022-11-10T03:57:53.000Z,4.38
2022-11-10T04:02:55.385Z,3.80
2022-11-10T04:08:00.944Z,4.80
2022-11-10T04:13:03.080Z,4.03
2022-11-10T04:18:05.437Z,3.65
2022-11-10T04:23:09.506Z,3.85
2022-11-10T04:28:11.755Z,3.67
2022-11-10T04:33:13.984Z,3.83
2022-11-10T04:38:18.100Z,4.20
2022-11-10T04:43:20.989Z,4.05
2022-11-10T04:48:24.174Z,4.50
2022-11-10T04:53:27.853Z,3.90
2022-11-10T04:58:30.232Z,3.17
2022-11-10T05:03:32.494Z,3.50
2022-11-10T05:08:36.261Z,3.80
2022-11-10T05:13:38.623Z,3.33
2022-11-10T05:18:41.377Z,3.70
2022-11-10T05:23:45.375Z,3.47
2022-11-10T05:28:47.695Z,3.70
2022-11-10T05:33:49.911Z,4.07
2022-11-10T05:38:54.121Z,3.35
2022-11-10T05:43:56.395Z,3.35
2022-11-10T05:48:58.673Z,3.67
2022-11-10T05:54:02.427Z,3.40
2022-11-10T05:59:19.409Z,3.33
2022-11-10T06:04:21.902Z,3.83
2022-11-10T06:09:25.834Z,4.53
2022-11-10T06:14:28.146Z,4.35
2022-11-10T06:19:30.444Z,4.70
2022-11-10T06:24:36.958Z,4.90
2022-11-10T06:29:39.329Z,6.17
2022-11-10T06:34:41.766Z,6.07
2022-11-10T06:39:45.573Z,5.25
2022-11-10T06:44:47.877Z,5.55
2022-11-10T06:49:50.245Z,5.40
2022-11-10T06:54:53.957Z,5.57
2022-11-10T06:59:56.183Z,4.50
2022-11-10T07:04:58.338Z,4.65
2022-11-10T07:10:06.736Z,4.80
2022-11-10T07:15:10.735Z,4.85
2022-11-10T07:20:13.061Z,5.47
2022-11-10T07:25:16.816Z,5.03
2022-11-10T07:30:19.147Z,5.35
2022-11-10T07:35:21.719Z,5.78
2022-11-10T07:40:25.417Z,6.35
2022-11-10T07:45:29.212Z,6.13
2022-11-10T07:50:31.813Z,6.13
2022-11-10T07:55:37.477Z,7.18
2022-11-10T08:00:40.423Z,6.22
2022-11-10T08:05:43.506Z,4.30
2022-11-10T08:10:47.262Z,4.72
2022-11-10T08:15:51.102Z,4.63
2022-11-10T08:20:53.529Z,4.78
2022-11-10T08:26:00.796Z,4.72
2022-11-10T08:36:10.672Z,4.53
2022-11-10T08:41:14.624Z,4.72
2022-11-10T08:46:16.932Z,5.15
2022-11-10T08:51:19.168Z,4.13
2022-11-10T08:56:23.466Z,4.78
2022-11-10T09:01:25.714Z,4.88
2022-11-10T09:06:28.073Z,5.10
2022-11-10T09:11:32.192Z,5.30
2022-11-10T09:16:34.442Z,5.10
2022-11-10T09:21:36.750Z,4.60
2022-11-10T09:26:40.458Z,4.60
2022-11-10T09:31:44.128Z,4.80
2022-11-10T09:36:46.406Z,4.63
2022-11-10T09:41:50.567Z,4.65
2022-11-10T09:46:58.912Z,4.38
2022-11-10T09:52:02.047Z,4.57
2022-11-10T09:57:08.345Z,4.43
2022-11-10T10:02:24.115Z,4.70
2022-11-10T10:07:31.049Z,5.25
2022-11-10T10:12:56.225Z,4.97
2022-11-10T10:18:16.540Z,4.93
2022-11-10T10:23:46.729Z,4.93
2022-11-10T10:28:51.359Z,5.65
2022-11-10T10:33:54.703Z,4.53
2022-11-10T10:39:01.431Z,4.22
2022-11-10T10:44:12.020Z,4.97
2022-11-10T10:49:33.700Z,4.43
2022-11-10T10:54:38.328Z,5.63
2022-11-10T10:59:42.120Z,4.60
2022-11-10T11:04:44.406Z,3.90
2022-11-10T11:09:47.428Z,4.45
2022-11-10T11:14:51.254Z,4.50
2022-11-10T11:19:59.445Z,4.25
2022-11-10T11:25:16.708Z,4.07
2022-11-10T11:30:22.513Z,4.35
2022-11-10T11:35:31.531Z,3.90
2022-11-10T11:40:46.122Z,3.38
2022-11-10T11:45:57.963Z,3.50
2022-11-10T11:51:09.989Z,3.50
2022-11-10T11:56:24.593Z,4.55
2022-11-10T12:01:45.403Z,3.70
2022-11-10T12:06:59.815Z,3.65
2022-11-10T12:12:17.162Z,4.57
2022-11-10T12:17:33.656Z,4.20
2022-11-10T12:22:43.050Z,7.30
2022-11-10T12:27:51.019Z,4.53
2022-11-10T12:33:00.492Z,4.50
2022-11-10T12:38:08.503Z,3.30
2022-11-10T12:43:19.003Z,2.88
2022-11-10T12:48:24.361Z,2.50
2022-11-10T12:53:31.050Z,3.30
2022-11-10T12:58:33.409Z,2.47
2022-11-10T13:03:39.493Z,2.50
2022-11-10T13:08:46.901Z,3.05
2022-11-10T13:13:59.303Z,3.13
2022-11-10T13:19:04.183Z,2.80
2022-11-10T13:24:23.891Z,2.78
2022-11-10T13:29:33.827Z,3.50
2022-11-10T13:34:38.378Z,2.53
2022-11-10T13:39:40.859Z,2.25
2022-11-10T13:44:43.622Z,2.17
2022-11-10T13:49:59.450Z,3.13
2022-11-10T13:55:38.736Z,3.20
2022-11-10T14:00:41.158Z,3.53
2022-11-10T14:06:05.342Z,2.55
2022-11-10T14:11:16.328Z,2.63
2022-11-10T14:16:21.373Z,3.10
2022-11-10T14:21:29.493Z,3.10
2022-11-10T14:26:38.009Z,3.20
2022-11-10T14:31:44.473Z,2.83
2022-11-10T14:36:57.103Z,4.07
2022-11-10T14:42:03.448Z,3.13
2022-11-10T14:47:24.140Z,2.28
2022-11-10T14:52:30.678Z,2.08
2022-11-10T14:57:33.133Z,1.77
2022-11-10T15:02:36.272Z,2.38
2022-11-10T15:07:40.528Z,2.60
2022-11-10T15:12:42.898Z,2.35
2022-11-10T15:17:47.674Z,2.35
2022-11-10T15:22:51.515Z,2.28
2022-11-10T15:28:00.794Z,2.55
2022-11-10T15:33:10.604Z,2.10
2022-11-10T15:38:29.724Z,2.30
2022-11-10T15:43:32.137Z,1.83
2022-11-10T15:48:38.790Z,2.03
2022-11-10T15:53:46.683Z,2.53
2022-11-10T15:58:50.715Z,3.10
2022-11-10T16:03:52.890Z,1.80
2022-11-10T16:08:56.879Z,2.35
2022-11-10T16:14:00.290Z,2.00
2022-11-10T16:19:02.642Z,3.42
2022-11-10T16:24:09.821Z,2.47
2022-11-10T16:29:13.925Z,2.80
2022-11-10T16:34:16.184Z,2.95
2022-11-10T16:39:20.052Z,3.03
2022-11-10T16:44:25.090Z,3.00
2022-11-10T16:49:34.295Z,2.83
2022-11-10T16:54:38.095Z,2.72
2022-11-10T16:59:40.500Z,2.92
2022-11-10T17:04:42.854Z,2.63
2022-11-10T17:09:47.689Z,2.78
2022-11-10T17:14:50.320Z,2.40
2022-11-10T17:19:52.573Z,2.30
2022-11-10T17:24:57.366Z,3.10
2022-11-10T17:29:59.720Z,2.63
2022-11-10T17:35:01.958Z,2.90
2022-11-10T17:40:16.793Z,2.13
2022-11-10T17:45:21.479Z,2.15
2022-11-10T17:50:24.501Z,2.42
2022-11-10T17:55:38.886Z,2.30
2022-11-10T18:00:41.903Z,2.03
2022-11-10T18:05:44.692Z,2.40
2022-11-10T18:10:50.398Z,2.03
2022-11-10T18:15:57.311Z,2.03
2022-11-10T18:20:59.611Z,2.70
2022-11-10T18:26:07.868Z,2.00
2022-11-10T18:31:12.030Z,1.80
2022-11-10T18:36:14.446Z,2.20
2022-11-10T18:41:18.187Z,1.83
2022-11-10T18:46:20.523Z,2.05
2022-11-10T18:51:22.794Z,2.22
2022-11-10T18:56:27.280Z,1.98
2022-11-10T19:01:29.983Z,1.83
2022-11-10T19:06:32.805Z,1.85
2022-11-10T19:11:36.534Z,2.03
2022-11-10T19:16:38.918Z,2.00
2022-11-10T19:21:41.731Z,2.25
2022-11-10T19:26:45.494Z,2.13
2022-11-10T19:31:48.058Z,2.03
2022-11-10T19:36:50.555Z,2.33
2022-11-10T19:41:54.375Z,1.70
2022-11-10T19:47:00.853Z,1.70
2022-11-10T19:52:05.185Z,1.93
2022-11-10T19:57:09.296Z,2.13
2022-11-10T20:02:13.513Z,1.98
2022-11-10T20:07:19.555Z,2.10
2022-11-10T20:12:40.821Z,2.53
2022-11-10T20:17:45.293Z,2.13
2022-11-10T20:22:48.227Z,2.30
2022-11-10T20:27:54.977Z,2.30
2022-11-10T20:32:59.542Z,2.65
2022-11-10T20:38:02.376Z,2.10
2022-11-10T20:43:09.733Z,2.67
2022-11-10T20:53:14.301Z,2.28
2022-11-10T20:58:18.386Z,1.83
2022-11-10T21:03:21.699Z,2.17
2022-11-10T21:08:24.703Z,2.10
2022-11-10T21:13:29.411Z,2.35
2022-11-10T21:18:33.880Z,2.20
2022-11-10T21:23:37.340Z,2.38
2022-11-10T21:28:43.404Z,1.75
2022-11-10T21:33:46.129Z,2.08
2022-11-10T21:38:49.285Z,2.63
2022-11-10T21:43:53.056Z,2.35
2022-11-10T21:48:55.512Z,2.33
2022-11-10T21:53:58.023Z,2.10
2022-11-10T21:59:02.138Z,2.20
2022-11-10T22:04:04.547Z,2.50
2022-11-10T22:09:06.837Z,2.55
2022-11-10T22:14:13.613Z,2.55
2022-11-10T22:19:16.046Z,2.10
2022-11-10T22:24:21.583Z,2.17
2022-11-10T22:29:31.189Z,2.17
2022-11-10T22:34:34.501Z,2.08
2022-11-10T22:39:37.009Z,2.05
2022-11-10T22:44:40.898Z,3.15
2022-11-10T22:49:43.384Z,2.20
2022-11-10T22:54:45.737Z,2.40
2022-11-10T22:59:50.147Z,2.70
2022-11-10T23:04:52.900Z,2.50
2022-11-10T23:09:55.238Z,3.35
2022-11-10T23:14:59.185Z,3.22
2022-11-10T23:20:05.368Z,3.15
2022-11-10T23:25:08.426Z,3.20
2022-11-10T23:30:13.221Z,2.72
2022-11-10T23:35:15.774Z,2.50
2022-11-10T23:40:23.659Z,3.13
2022-11-10T23:45:52.702Z,2.92
2022-11-10T23:50:50.259Z,3.65
2022-11-10T23:55:59.935Z,3.50
